Time;durP1;ratioP1;P1;durP2;ratioP2;P2;SDS_P1;SDS_P2;PMS_P1;PMS_P2;Temp;Humidity;BMP_temperature;BMP_pressure;BME280_temperature;BME280_humidity;BME280_pressure;Samples;Min_cycle;Max_cycle;Signal;HPM_P1;HPM_P2
2022/01/17 00:01:34;;;;;;;12.88;2.10;;;;;;;;;;4998438;28;20221;-62
2022/01/17 00:04:00;;;;;;;13.77;2.27;;;;;;;;;;4977384;28;20225;-62
2022/01/17 00:06:25;;;;;;;13.30;2.22;;;;;;;;;;4994214;28;20243;-62
2022/01/17 00:08:51;;;;;;;12.30;2.00;;;;;;;;;;4976275;28;20696;-62
2022/01/17 00:11:16;;;;;;;13.77;2.27;;;;;;;;;;4993900;28;20213;-62
2022/01/17 00:13:43;;;;;;;13.07;2.40;;;;;;;;;;4994207;28;20303;-63
2022/01/17 00:16:13;;;;;;;13.98;2.08;;;;;;;;;;4989910;28;20209;-62
2022/01/17 00:21:03;;;;;;;12.52;2.08;;;;;;;;;;4956446;28;20234;-62
2022/01/17 00:23:29;;;;;;;18.00;2.78;;;;;;;;;;5003445;28;20204;-63
2022/01/17 00:25:54;;;;;;;16.85;2.40;;;;;;;;;;5013591;28;20224;-63
2022/01/17 00:28:19;;;;;;;12.68;2.00;;;;;;;;;;5012580;28;24020;-62
2022/01/17 00:30:45;;;;;;;11.98;2.15;;;;;;;;;;5013790;28;20295;-62
2022/01/17 00:33:11;;;;;;;15.65;2.15;;;;;;;;;;5013020;28;20299;-62
2022/01/17 00:35:36;;;;;;;12.40;2.27;;;;;;;;;;5012833;28;20299;-62
2022/01/17 00:38:01;;;;;;;15.32;2.08;;;;;;;;;;5013277;28;20585;-63
2022/01/17 00:40:27;;;;;;;7.30;1.87;;;;;;;;;;4995832;28;20224;-63
2022/01/17 00:42:52;;;;;;;15.25;2.25;;;;;;;;;;5012798;28;20271;-63
2022/01/17 00:45:24;;;;;;;11.30;2.00;;;;;;;;;;5012965;28;20706;-63
2022/01/17 00:47:50;;;;;;;14.60;2.00;;;;;;;;;;4995588;28;20243;-63
2022/01/17 00:50:16;;;;;;;12.32;2.13;;;;;;;;;;5012126;28;20616;-63
2022/01/17 00:52:41;;;;;;;16.73;2.30;;;;;;;;;;5013512;28;20204;-63
2022/01/17 00:55:06;;;;;;;12.18;2.20;;;;;;;;;;5012679;28;20227;-62
2022/01/17 00:57:32;;;;;;;13.80;2.40;;;;;;;;;;5012415;28;20262;-63
2022/01/17 00:59:57;;;;;;;10.87;2.10;;;;;;;;;;5011439;28;20293;-62
2022/01/17 01:02:22;;;;;;;14.30;2.03;;;;;;;;;;4993096;28;20579;-62
2022/01/17 01:04:48;;;;;;;17.67;2.00;;;;;;;;;;4992256;28;20212;-63
2022/01/17 01:07:13;;;;;;;11.95;2.08;;;;;;;;;;4975545;28;20263;-63
2022/01/17 01:09:49;;;;;;;16.10;2.10;;;;;;;;;;4993189;28;20703;-63
2022/01/17 01:12:14;;;;;;;14.38;1.98;;;;;;;;;;4985768;28;20210;-62
2022/01/17 01:14:42;;;;;;;15.77;2.30;;;;;;;;;;4981060;28;20568;-63
2022/01/17 01:17:18;;;;;;;14.48;3.03;;;;;;;;;;4984462;28;20209;-64
2022/01/17 01:19:44;;;;;;;12.95;1.75;;;;;;;;;;4992752;28;20637;-64
2022/01/17 01:27:40;;;;;;;12.97;1.80;;;;;;;;;;4996436;28;20303;-63
2022/01/17 01:27:47;;;;;;;15.17;2.00;;;;;;;;;;4997460;28;20270;-63
2022/01/17 01:30:15;;;;;;;11.73;1.88;;;;;;;;;;5012376;28;20216;-64
2022/01/17 01:32:47;;;;;;;15.05;2.05;;;;;;;;;;4994783;28;20220;-64
2022/01/17 01:35:17;;;;;;;12.03;2.07;;;;;;;;;;5011960;28;20701;-63
2022/01/17 01:37:44;;;;;;;14.07;2.25;;;;;;;;;;4995286;28;20270;-64
2022/01/17 01:40:09;;;;;;;16.40;2.28;;;;;;;;;;4994079;28;20236;-64
2022/01/17 01:42:35;;;;;;;16.27;2.60;;;;;;;;;;4995438;28;20244;-64
2022/01/17 01:45:01;;;;;;;12.63;2.30;;;;;;;;;;5012544;28;20286;-64
2022/01/17 01:47:26;;;;;;;13.05;2.40;;;;;;;;;;4994694;28;20266;-64
2022/01/17 01:49:52;;;;;;;16.60;2.53;;;;;;;;;;4994754;28;20699;-64
2022/01/17 01:52:17;;;;;;;15.48;3.10;;;;;;;;;;5012174;28;20232;-63
2022/01/17 01:54:42;;;;;;;15.48;2.80;;;;;;;;;;5011866;28;20731;-64
2022/01/17 01:57:08;;;;;;;17.63;2.55;;;;;;;;;;4994552;28;20267;-63
2022/01/17 01:59:33;;;;;;;14.95;2.80;;;;;;;;;;4994189;28;20667;-63
2022/01/17 02:01:58;;;;;;;14.23;2.73;;;;;;;;;;4994370;28;20209;-64
2022/01/17 02:04:24;;;;;;;15.13;3.03;;;;;;;;;;4975047;28;20303;-64
2022/01/17 02:06:49;;;;;;;17.45;2.90;;;;;;;;;;4974672;28;20243;-63
2022/01/17 02:09:14;;;;;;;17.20;2.60;;;;;;;;;;4974658;28;20270;-63
2022/01/17 02:11:40;;;;;;;17.40;2.97;;;;;;;;;;4975611;28;20213;-63
2022/01/17 02:14:05;;;;;;;15.43;2.58;;;;;;;;;;4991461;28;20229;-63
2022/01/17 02:16:31;;;;;;;17.73;2.83;;;;;;;;;;4987110;28;20689;-63
2022/01/17 02:18:56;;;;;;;14.17;2.67;;;;;;;;;;4977061;28;20696;-64
2022/01/17 02:21:33;;;;;;;15.10;2.58;;;;;;;;;;4975422;28;20312;-63
2022/01/17 02:23:59;;;;;;;15.23;3.30;;;;;;;;;;5013731;28;20215;-64
2022/01/17 02:26:24;;;;;;;16.93;2.43;;;;;;;;;;5015302;28;20569;-64
2022/01/17 02:28:51;;;;;;;14.45;2.78;;;;;;;;;;5015212;28;20687;-63
2022/01/17 02:31:17;;;;;;;12.03;2.70;;;;;;;;;;4997821;28;20274;-63
2022/01/17 02:33:42;;;;;;;18.42;3.20;;;;;;;;;;4998201;28;20687;-63
2022/01/17 02:36:08;;;;;;;14.45;2.20;;;;;;;;;;5014111;28;20208;-63
2022/01/17 02:38:33;;;;;;;14.53;2.53;;;;;;;;;;4998142;28;20208;-64
2022/01/17 02:40:59;;;;;;;12.02;2.20;;;;;;;;;;5015686;28;20216;-64
2022/01/17 02:43:26;;;;;;;14.98;2.30;;;;;;;;;;4996935;28;20204;-63
2022/01/17 02:48:16;;;;;;;15.00;2.27;;;;;;;;;;5014920;28;20627;-64
2022/01/17 02:50:42;;;;;;;13.05;2.13;;;;;;;;;;5014507;28;20252;-63
2022/01/17 02:53:09;;;;;;;13.40;2.10;;;;;;;;;;5014700;28;20663;-63
2022/01/17 02:55:34;;;;;;;16.95;2.00;;;;;;;;;;5015363;28;20229;-63
2022/01/17 02:57:59;;;;;;;12.98;2.00;;;;;;;;;;5014617;28;20208;-63
2022/01/17 03:00:25;;;;;;;13.30;2.07;;;;;;;;;;5009225;28;20239;-63
2022/01/17 03:02:50;;;;;;;12.20;1.80;;;;;;;;;;4977384;28;20213;-63
2022/01/17 03:05:16;;;;;;;13.53;2.10;;;;;;;;;;4994927;28;20217;-63
2022/01/17 03:07:41;;;;;;;13.60;2.10;;;;;;;;;;4977771;28;20213;-63
2022/01/17 03:10:13;;;;;;;16.90;2.37;;;;;;;;;;4994414;28;20221;-63
2022/01/17 03:12:38;;;;;;;12.40;2.03;;;;;;;;;;4995409;28;20748;-63
2022/01/17 03:15:03;;;;;;;14.17;2.00;;;;;;;;;;4995244;28;20312;-62
2022/01/17 03:17:29;;;;;;;17.30;2.10;;;;;;;;;;4980735;28;20294;-62
2022/01/17 03:19:54;;;;;;;15.00;2.10;;;;;;;;;;4975888;28;20230;-62
2022/01/17 03:22:20;;;;;;;13.50;1.80;;;;;;;;;;4985122;28;20332;-62
2022/01/17 03:24:45;;;;;;;15.02;2.00;;;;;;;;;;5014118;28;20270;-63
2022/01/17 03:27:10;;;;;;;11.45;1.88;;;;;;;;;;5014305;28;20215;-63
2022/01/17 03:29:35;;;;;;;15.40;2.78;;;;;;;;;;5015066;28;20205;-63
2022/01/17 03:32:01;;;;;;;15.35;2.28;;;;;;;;;;5013518;28;20311;-63
2022/01/17 03:34:26;;;;;;;15.67;1.97;;;;;;;;;;5014831;28;20231;-63
2022/01/17 03:36:51;;;;;;;18.23;2.17;;;;;;;;;;5014374;28;20258;-63
2022/01/17 03:39:17;;;;;;;11.15;1.70;;;;;;;;;;4995823;28;20212;-63
2022/01/17 03:41:42;;;;;;;11.48;1.98;;;;;;;;;;5014429;28;20637;-63
2022/01/17 03:44:07;;;;;;;13.03;2.10;;;;;;;;;;5014145;28;20217;-63
2022/01/17 03:46:32;;;;;;;14.63;1.80;;;;;;;;;;5013741;28;20243;-63
2022/01/17 03:48:58;;;;;;;16.35;2.10;;;;;;;;;;5014221;28;20216;-62
2022/01/17 03:51:23;;;;;;;13.07;2.00;;;;;;;;;;4996059;28;20231;-63
2022/01/17 03:53:48;;;;;;;11.70;2.03;;;;;;;;;;5013428;28;20237;-63
2022/01/17 03:56:14;;;;;;;15.00;1.85;;;;;;;;;;5013943;28;20258;-63
2022/01/17 03:58:39;;;;;;;11.43;1.95;;;;;;;;;;5014403;28;20343;-63
2022/01/17 04:01:04;;;;;;;12.27;2.07;;;;;;;;;;5001837;28;20217;-63
2022/01/17 04:03:30;;;;;;;15.68;1.88;;;;;;;;;;4994736;28;20300;-63
2022/01/17 04:05:55;;;;;;;14.18;2.10;;;;;;;;;;4994301;28;20221;-63
2022/01/17 04:08:20;;;;;;;13.23;2.03;;;;;;;;;;4993001;28;20236;-63
2022/01/17 04:10:46;;;;;;;18.83;2.20;;;;;;;;;;4977060;28;20300;-63
2022/01/17 04:13:11;;;;;;;15.43;1.80;;;;;;;;;;4975464;28;20217;-63
2022/01/17 04:15:36;;;;;;;13.00;2.22;;;;;;;;;;4994350;28;20276;-63
2022/01/17 04:18:03;;;;;;;10.57;1.67;;;;;;;;;;4958135;28;20272;-63
2022/01/17 04:20:29;;;;;;;14.77;2.35;;;;;;;;;;4973848;28;20236;-63
2022/01/17 04:22:55;;;;;;;14.80;2.33;;;;;;;;;;4976514;28;20864;-63
2022/01/17 04:25:21;;;;;;;12.87;1.90;;;;;;;;;;5013367;28;20707;-63
2022/01/17 04:27:47;;;;;;;13.93;1.97;;;;;;;;;;5012744;28;20251;-63
2022/01/17 04:30:13;;;;;;;18.00;2.10;;;;;;;;;;5013427;28;20237;-62
2022/01/17 04:32:39;;;;;;;14.35;2.10;;;;;;;;;;5013410;28;20286;-63
2022/01/17 04:35:04;;;;;;;10.60;1.77;;;;;;;;;;5012257;28;20636;-63
2022/01/17 04:37:30;;;;;;;12.00;1.67;;;;;;;;;;5013256;28;20630;-63
2022/01/17 04:39:55;;;;;;;16.05;1.80;;;;;;;;;;5013445;28;20683;-63
2022/01/17 04:42:27;;;;;;;12.37;1.70;;;;;;;;;;5012231;28;20220;-63
2022/01/17 04:45:08;;;;;;;18.83;2.37;;;;;;;;;;5013470;28;20208;-63
2022/01/17 04:47:33;;;;;;;15.65;2.15;;;;;;;;;;5012748;28;20212;-63
2022/01/17 04:49:58;;;;;;;14.68;2.00;;;;;;;;;;5012476;28;20212;-63
2022/01/17 04:52:24;;;;;;;22.45;1.95;;;;;;;;;;4995114;28;20197;-63
2022/01/17 04:54:55;;;;;;;16.98;2.17;;;;;;;;;;5013136;28;20604;-63
2022/01/17 04:57:21;;;;;;;18.02;2.00;;;;;;;;;;4994972;28;20660;-63
2022/01/17 04:59:46;;;;;;;13.03;1.87;;;;;;;;;;5013030;28;20213;-63
2022/01/17 05:02:11;;;;;;;12.07;2.10;;;;;;;;;;4992962;28;20224;-62
2022/01/17 05:04:37;;;;;;;15.80;2.57;;;;;;;;;;4992877;28;20205;-63
2022/01/17 05:07:02;;;;;;;12.53;2.13;;;;;;;;;;4975382;28;20221;-62
2022/01/17 05:09:28;;;;;;;12.55;2.15;;;;;;;;;;4975247;28;20592;-63
2022/01/17 05:11:53;;;;;;;12.90;2.03;;;;;;;;;;4993172;28;20219;-63
2022/01/17 05:14:18;;;;;;;14.18;2.20;;;;;;;;;;4992859;28;20283;-63
2022/01/17 05:16:49;;;;;;;17.17;2.00;;;;;;;;;;4967519;28;20305;-63
2022/01/17 05:21:58;;;;;;;19.43;2.77;;;;;;;;;;4963400;28;20626;-63
2022/01/17 05:24:24;;;;;;;15.20;2.03;;;;;;;;;;5011499;28;20706;-63
2022/01/17 05:26:49;;;;;;;15.30;2.17;;;;;;;;;;5012671;28;20298;-63
2022/01/17 05:29:15;;;;;;;17.17;2.70;;;;;;;;;;4994362;28;20216;-63
2022/01/17 05:31:40;;;;;;;14.03;2.90;;;;;;;;;;5012024;28;20304;-63
2022/01/17 05:34:06;;;;;;;14.70;2.43;;;;;;;;;;4994545;28;20232;-63
2022/01/17 05:36:31;;;;;;;14.50;2.37;;;;;;;;;;4995426;28;20616;-63
2022/01/17 05:38:56;;;;;;;10.65;2.47;;;;;;;;;;5011446;28;20223;-63
2022/01/17 05:41:21;;;;;;;10.25;1.98;;;;;;;;;;4994611;28;20208;-62
2022/01/17 05:43:47;;;;;;;11.37;2.00;;;;;;;;;;4994891;28;20216;-63
2022/01/17 05:46:12;;;;;;;14.90;2.37;;;;;;;;;;5011361;28;20216;-63
2022/01/17 05:48:37;;;;;;;14.23;2.80;;;;;;;;;;5012432;28;20274;-63
2022/01/17 05:51:02;;;;;;;17.07;2.37;;;;;;;;;;5012222;28;20217;-63
2022/01/17 05:53:28;;;;;;;13.83;2.33;;;;;;;;;;5015634;28;20221;-63
2022/01/17 05:55:53;;;;;;;14.93;2.00;;;;;;;;;;4998893;28;20224;-63
2022/01/17 05:58:18;;;;;;;12.93;2.55;;;;;;;;;;5015788;28;20702;-63
2022/01/17 06:00:43;;;;;;;18.50;2.93;;;;;;;;;;4990131;28;20241;-63
2022/01/17 06:03:09;;;;;;;14.47;2.40;;;;;;;;;;4996071;28;20213;-63
2022/01/17 06:05:34;;;;;;;12.83;2.83;;;;;;;;;;4978459;28;20209;-62
2022/01/17 06:07:59;;;;;;;11.63;2.37;;;;;;;;;;4979148;28;20604;-63
2022/01/17 06:10:24;;;;;;;17.07;2.80;;;;;;;;;;4996023;28;20636;-63
2022/01/17 06:12:50;;;;;;;13.30;2.37;;;;;;;;;;4996052;28;20233;-64
2022/01/17 06:15:18;;;;;;;15.03;2.73;;;;;;;;;;4996123;28;20240;-64
2022/01/17 06:17:43;;;;;;;14.10;2.67;;;;;;;;;;4963577;28;20279;-64
2022/01/17 06:20:09;;;;;;;15.23;2.97;;;;;;;;;;4975209;28;20685;-65
2022/01/17 06:22:34;;;;;;;19.40;4.33;;;;;;;;;;4972163;28;20231;-64
2022/01/17 06:24:59;;;;;;;19.83;4.47;;;;;;;;;;5014312;28;20434;-65
2022/01/17 06:27:25;;;;;;;16.08;4.40;;;;;;;;;;5013426;28;20216;-69
2022/01/17 06:29:52;;;;;;;13.97;3.97;;;;;;;;;;4993748;28;20212;-65
2022/01/17 06:32:17;;;;;;;19.40;6.10;;;;;;;;;;4979315;28;20214;-66
2022/01/17 06:34:42;;;;;;;16.03;4.70;;;;;;;;;;4976086;28;20280;-65
2022/01/17 06:37:07;;;;;;;16.53;4.43;;;;;;;;;;4966657;28;20222;-65
2022/01/17 06:39:33;;;;;;;19.03;6.70;;;;;;;;;;4986055;28;20225;-64
2022/01/17 06:41:59;;;;;;;22.37;6.30;;;;;;;;;;4977915;28;20276;-65
2022/01/17 06:44:24;;;;;;;22.07;6.97;;;;;;;;;;4974691;28;20282;-64
2022/01/17 06:46:49;;;;;;;23.07;4.63;;;;;;;;;;4975341;28;20222;-64
2022/01/17 06:49:15;;;;;;;14.55;4.82;;;;;;;;;;4973869;28;20217;-64
2022/01/17 06:51:40;;;;;;;21.47;5.23;;;;;;;;;;4975364;28;20222;-64
2022/01/17 06:54:05;;;;;;;18.13;4.73;;;;;;;;;;4974423;28;20229;-64
2022/01/17 06:56:31;;;;;;;18.00;5.30;;;;;;;;;;4974173;28;20284;-64
2022/01/17 06:58:56;;;;;;;25.23;5.13;;;;;;;;;;4969481;28;20213;-65
2022/01/17 07:01:21;;;;;;;18.20;6.10;;;;;;;;;;4977450;28;20654;-64
2022/01/17 07:03:47;;;;;;;24.47;10.77;;;;;;;;;;4973629;28;20210;-63
2022/01/17 07:06:12;;;;;;;18.67;7.13;;;;;;;;;;4959796;28;20205;-63
2022/01/17 07:08:37;;;;;;;20.38;7.20;;;;;;;;;;4979581;28;20213;-63
2022/01/17 07:11:03;;;;;;;19.43;7.50;;;;;;;;;;4992484;28;20220;-63
2022/01/17 07:13:28;;;;;;;28.97;15.83;;;;;;;;;;5013760;28;20300;-63
2022/01/17 07:15:53;;;;;;;20.13;10.50;;;;;;;;;;5011881;28;20213;-63
2022/01/17 07:18:19;;;;;;;27.23;16.47;;;;;;;;;;4993472;28;20239;-63
2022/01/17 07:20:44;;;;;;;25.23;13.07;;;;;;;;;;4937941;28;1127238;-63
2022/01/17 07:23:09;;;;;;;26.50;15.50;;;;;;;;;;5005633;28;20225;-63
2022/01/17 07:25:38;;;;;;;29.70;16.27;;;;;;;;;;5014714;28;20270;-63
2022/01/17 07:28:04;;;;;;;26.60;15.80;;;;;;;;;;5013832;28;20299;-63
2022/01/17 07:30:30;;;;;;;23.20;10.83;;;;;;;;;;5013960;28;20640;-63
2022/01/17 07:32:55;;;;;;;27.90;15.67;;;;;;;;;;5014631;28;20208;-63
2022/01/17 07:35:21;;;;;;;27.00;14.40;;;;;;;;;;5003178;28;20660;-63
2022/01/17 07:37:46;;;;;;;28.63;14.47;;;;;;;;;;4993933;28;20216;-63
2022/01/17 07:40:11;;;;;;;29.33;11.67;;;;;;;;;;4994346;28;20224;-63
2022/01/17 07:42:37;;;;;;;26.83;11.83;;;;;;;;;;5013092;28;20221;-63
2022/01/17 07:45:10;;;;;;;21.50;12.43;;;;;;;;;;5013209;28;20235;-63
2022/01/17 07:47:45;;;;;;;24.52;13.27;;;;;;;;;;4973663;28;20222;-63
2022/01/17 07:50:12;;;;;;;28.97;14.23;;;;;;;;;;4958890;28;20213;-63
2022/01/17 07:52:38;;;;;;;28.43;18.70;;;;;;;;;;4974717;28;20333;-63
2022/01/17 07:55:03;;;;;;;26.37;13.27;;;;;;;;;;4957402;28;20254;-63
2022/01/17 07:57:28;;;;;;;23.57;13.20;;;;;;;;;;4975019;28;20230;-63
2022/01/17 07:59:54;;;;;;;30.27;19.20;;;;;;;;;;4975537;28;20260;-63
2022/01/17 08:02:19;;;;;;;25.70;12.98;;;;;;;;;;4994241;28;20223;-61
2022/01/17 08:04:44;;;;;;;30.63;22.83;;;;;;;;;;4992073;28;20218;-61
2022/01/17 08:07:09;;;;;;;31.20;19.53;;;;;;;;;;4992819;28;20299;-61
2022/01/17 08:09:35;;;;;;;28.10;13.75;;;;;;;;;;4992546;28;20551;-62
2022/01/17 08:12:00;;;;;;;25.48;14.75;;;;;;;;;;4974459;28;20280;-62
2022/01/17 08:14:26;;;;;;;25.57;15.67;;;;;;;;;;4968141;28;20240;-62
2022/01/17 08:16:52;;;;;;;26.55;15.55;;;;;;;;;;4989517;28;20558;-62
2022/01/17 08:19:17;;;;;;;29.63;19.60;;;;;;;;;;4992834;28;20221;-62
2022/01/17 08:21:42;;;;;;;31.53;13.07;;;;;;;;;;4994008;28;20755;-62
2022/01/17 08:24:08;;;;;;;29.37;17.63;;;;;;;;;;4974140;28;20224;-62
2022/01/17 08:26:33;;;;;;;42.10;32.40;;;;;;;;;;4974150;28;20229;-62
2022/01/17 08:28:58;;;;;;;24.52;14.43;;;;;;;;;;4974212;28;20245;-61
2022/01/17 08:31:24;;;;;;;28.17;18.83;;;;;;;;;;4974037;28;20241;-62
2022/01/17 08:33:49;;;;;;;28.83;19.13;;;;;;;;;;4973873;28;20234;-62
2022/01/17 08:36:18;;;;;;;31.37;22.67;;;;;;;;;;4973833;28;20560;-62
2022/01/17 08:38:44;;;;;;;34.25;20.02;;;;;;;;;;4974473;28;20222;-62
2022/01/17 08:41:09;;;;;;;24.03;12.83;;;;;;;;;;4973193;28;20731;-61
2022/01/17 08:43:34;;;;;;;31.43;14.87;;;;;;;;;;4974103;28;20305;-63
2022/01/17 08:46:00;;;;;;;31.40;22.70;;;;;;;;;;4974017;28;20220;-62
2022/01/17 08:48:25;;;;;;;51.70;45.88;;;;;;;;;;4972900;28;20292;-62
2022/01/17 08:50:51;;;;;;;31.92;18.45;;;;;;;;;;4973980;28;20238;-61
2022/01/17 08:53:16;;;;;;;40.67;29.17;;;;;;;;;;4973682;28;20261;-62
2022/01/17 08:55:43;;;;;;;31.05;22.13;;;;;;;;;;4956232;28;20313;-62
2022/01/17 08:58:08;;;;;;;35.70;22.38;;;;;;;;;;4973501;28;20224;-62
2022/01/17 09:00:33;;;;;;;34.00;22.52;;;;;;;;;;4980358;28;20316;-64
2022/01/17 09:03:01;;;;;;;31.30;17.75;;;;;;;;;;4992586;28;20272;-63
2022/01/17 09:05:26;;;;;;;28.07;12.30;;;;;;;;;;4976167;28;20220;-61
2022/01/17 09:07:52;;;;;;;29.40;14.95;;;;;;;;;;4974656;28;20217;-61
2022/01/17 09:10:17;;;;;;;34.70;13.73;;;;;;;;;;4992212;28;20209;-62
2022/01/17 09:12:43;;;;;;;22.85;10.77;;;;;;;;;;4992985;28;20624;-62
2022/01/17 09:15:08;;;;;;;25.70;10.60;;;;;;;;;;4974559;28;20243;-62
2022/01/17 09:17:33;;;;;;;24.50;11.27;;;;;;;;;;4977920;28;20665;-62
2022/01/17 09:19:59;;;;;;;31.33;11.90;;;;;;;;;;4973841;28;20224;-62
2022/01/17 09:22:24;;;;;;;23.47;9.30;;;;;;;;;;4978378;28;20256;-62
2022/01/17 09:24:51;;;;;;;23.90;10.40;;;;;;;;;;4975069;28;20213;-61
2022/01/17 09:27:16;;;;;;;23.97;8.53;;;;;;;;;;4975072;28;20213;-62
2022/01/17 09:29:43;;;;;;;23.17;7.30;;;;;;;;;;4991597;28;20224;-61
2022/01/17 09:32:08;;;;;;;25.27;7.23;;;;;;;;;;4992379;28;20220;-62
2022/01/17 09:34:33;;;;;;;24.03;7.57;;;;;;;;;;4992808;28;20750;-61
2022/01/17 09:36:59;;;;;;;20.55;6.97;;;;;;;;;;4974972;28;20248;-61
2022/01/17 09:39:24;;;;;;;25.80;7.97;;;;;;;;;;4992415;28;20368;-63
2022/01/17 09:41:49;;;;;;;24.90;7.50;;;;;;;;;;4992863;28;20275;-62
2022/01/17 09:44:15;;;;;;;24.93;7.17;;;;;;;;;;4991418;28;20220;-62
2022/01/17 09:46:45;;;;;;;22.53;6.87;;;;;;;;;;4975503;28;20232;-62
2022/01/17 09:49:30;;;;;;;24.67;7.20;;;;;;;;;;4975705;28;20213;-62
2022/01/17 09:54:23;;;;;;;23.92;6.90;;;;;;;;;;4990825;28;20603;-62
2022/01/17 09:56:50;;;;;;;21.27;5.93;;;;;;;;;;4994875;28;20231;-62
2022/01/17 09:59:15;;;;;;;23.77;6.33;;;;;;;;;;5010457;28;20220;-62
2022/01/17 10:01:41;;;;;;;38.47;15.17;;;;;;;;;;4996428;28;20745;-64
2022/01/17 10:04:07;;;;;;;25.80;8.85;;;;;;;;;;4992321;28;20792;-62
2022/01/17 10:06:35;;;;;;;24.67;6.70;;;;;;;;;;4991809;28;20300;-62
2022/01/17 10:09:10;;;;;;;23.73;7.82;;;;;;;;;;4992258;28;20209;-62
2022/01/17 10:11:35;;;;;;;23.05;8.98;;;;;;;;;;4975403;28;20213;-62
2022/01/17 10:14:01;;;;;;;26.45;9.48;;;;;;;;;;4991177;28;20221;-62
2022/01/17 10:16:29;;;;;;;24.10;7.80;;;;;;;;;;4969339;28;20206;-62
2022/01/17 10:18:55;;;;;;;33.15;12.88;;;;;;;;;;4972096;28;20220;-62
2022/01/17 10:21:30;;;;;;;20.38;6.07;;;;;;;;;;4972608;28;20557;-62
2022/01/17 10:34:52;;;;;;;27.23;9.17;;;;;;;;;;4991783;28;20705;-62
2022/01/17 10:36:47;;;;;;;20.85;5.55;;;;;;;;;;5011926;28;20211;-61
2022/01/17 10:39:13;;;;;;;35.63;15.10;;;;;;;;;;4997348;28;20212;-61
2022/01/17 10:41:38;;;;;;;22.20;8.38;;;;;;;;;;5008882;28;20217;-62
2022/01/17 10:44:04;;;;;;;35.43;11.80;;;;;;;;;;4995242;28;20228;-61
2022/01/17 10:46:29;;;;;;;29.60;10.23;;;;;;;;;;4980335;28;20267;-62
2022/01/17 10:48:56;;;;;;;31.67;9.70;;;;;;;;;;4958069;28;20217;-61
2022/01/17 10:51:26;;;;;;;28.70;8.70;;;;;;;;;;4975054;28;20694;-62
2022/01/17 10:53:52;;;;;;;23.75;6.03;;;;;;;;;;4958889;28;20265;-61
2022/01/17 10:56:18;;;;;;;26.02;5.03;;;;;;;;;;4958142;28;20217;-62
2022/01/17 10:58:43;;;;;;;24.97;4.77;;;;;;;;;;4974981;28;20704;-61
2022/01/17 11:01:11;;;;;;;21.83;5.25;;;;;;;;;;4986033;28;20225;-62
2022/01/17 11:03:36;;;;;;;23.05;5.60;;;;;;;;;;4995403;28;20291;-62
2022/01/17 11:06:04;;;;;;;22.55;5.05;;;;;;;;;;4995070;28;20712;-62
2022/01/17 11:08:30;;;;;;;24.95;5.95;;;;;;;;;;4994742;28;20737;-62
2022/01/17 11:10:56;;;;;;;22.73;4.30;;;;;;;;;;4995351;28;20303;-62
2022/01/17 11:13:22;;;;;;;24.70;4.32;;;;;;;;;;4994845;28;20227;-62
2022/01/17 11:15:50;;;;;;;23.95;5.22;;;;;;;;;;4976957;28;20315;-62
2022/01/17 11:18:19;;;;;;;23.60;4.63;;;;;;;;;;4994706;28;20719;-62
2022/01/17 11:20:44;;;;;;;25.52;5.00;;;;;;;;;;4989324;28;20256;-62
2022/01/17 11:23:10;;;;;;;21.75;4.30;;;;;;;;;;4966789;28;20284;-62
2022/01/17 11:25:35;;;;;;;20.38;3.80;;;;;;;;;;4994243;28;20210;-62
2022/01/17 11:28:01;;;;;;;30.13;4.93;;;;;;;;;;4994573;28;20248;-62
2022/01/17 11:30:27;;;;;;;25.40;5.23;;;;;;;;;;4993352;28;20618;-62
2022/01/17 11:32:54;;;;;;;22.33;4.18;;;;;;;;;;4995301;28;20671;-62
2022/01/17 11:35:20;;;;;;;23.67;4.75;;;;;;;;;;4993306;28;20248;-62
2022/01/17 11:37:47;;;;;;;24.63;4.15;;;;;;;;;;4993129;28;20672;-62
2022/01/17 11:40:12;;;;;;;23.80;4.03;;;;;;;;;;4994627;28;20220;-62
2022/01/17 11:42:44;;;;;;;23.40;4.35;;;;;;;;;;4993855;28;20217;-62
2022/01/17 11:45:22;;;;;;;24.92;3.85;;;;;;;;;;4993668;28;20293;-62
2022/01/17 11:47:49;;;;;;;23.58;3.55;;;;;;;;;;4993385;28;20582;-63
2022/01/17 11:50:28;;;;;;;25.92;4.30;;;;;;;;;;4988793;28;20219;-63
2022/01/17 11:52:53;;;;;;;26.67;4.43;;;;;;;;;;4975353;28;20287;-63
2022/01/17 11:55:37;;;;;;;26.45;3.63;;;;;;;;;;4975021;28;20305;-63
2022/01/17 11:58:15;;;;;;;21.83;3.22;;;;;;;;;;4972886;28;20210;-63
2022/01/17 12:00:40;;;;;;;17.95;3.90;;;;;;;;;;4975153;28;20230;-63
2022/01/17 12:03:15;;;;;;;24.30;4.32;;;;;;;;;;4972434;28;20222;-63
2022/01/17 12:05:42;;;;;;;28.15;3.90;;;;;;;;;;4973148;28;20209;-63
2022/01/17 12:08:09;;;;;;;29.10;6.20;;;;;;;;;;4974598;28;20265;-63
2022/01/17 12:10:40;;;;;;;21.90;4.80;;;;;;;;;;4975306;28;20576;-63
2022/01/17 12:13:34;;;;;;;28.77;9.00;;;;;;;;;;4973694;28;20233;-63
2022/01/17 12:16:06;;;;;;;20.83;4.50;;;;;;;;;;4973239;28;20237;-63
2022/01/17 12:18:34;;;;;;;24.67;4.20;;;;;;;;;;4954281;28;20226;-63
2022/01/17 12:21:17;;;;;;;20.42;4.07;;;;;;;;;;4946487;28;20247;-63
2022/01/17 12:23:43;;;;;;;26.63;3.95;;;;;;;;;;4967732;28;20252;-63
2022/01/17 12:26:26;;;;;;;26.35;3.92;;;;;;;;;;4973521;28;20233;-63
2022/01/17 12:28:52;;;;;;;27.13;4.18;;;;;;;;;;4974283;28;20595;-64
2022/01/17 12:31:35;;;;;;;24.27;3.55;;;;;;;;;;4974255;28;20297;-63
2022/01/17 12:34:14;;;;;;;28.92;4.57;;;;;;;;;;4971819;28;20325;-63
2022/01/17 12:36:41;;;;;;;24.35;3.80;;;;;;;;;;4973354;28;20217;-63
2022/01/17 12:39:12;;;;;;;24.35;3.45;;;;;;;;;;4974109;28;20260;-63
2022/01/17 12:41:39;;;;;;;23.63;3.92;;;;;;;;;;4973830;28;20217;-63
2022/01/17 12:44:18;;;;;;;28.05;3.95;;;;;;;;;;4972662;28;20210;-63
2022/01/17 12:46:44;;;;;;;27.63;4.03;;;;;;;;;;4973439;28;20228;-63
2022/01/17 12:49:09;;;;;;;24.85;3.80;;;;;;;;;;4973604;28;20214;-63
2022/01/17 12:51:38;;;;;;;25.42;3.72;;;;;;;;;;4974265;28;20221;-63
2022/01/17 12:54:03;;;;;;;24.38;3.70;;;;;;;;;;4971717;28;20225;-63
2022/01/17 12:56:29;;;;;;;24.30;4.00;;;;;;;;;;4972972;28;20265;-63
2022/01/17 12:58:54;;;;;;;27.73;3.80;;;;;;;;;;4972091;28;20229;-63
2022/01/17 13:01:19;;;;;;;23.33;4.45;;;;;;;;;;4958466;28;20218;-63
2022/01/17 13:03:46;;;;;;;24.77;3.92;;;;;;;;;;4954701;28;20285;-63
2022/01/17 13:06:13;;;;;;;30.08;4.35;;;;;;;;;;4953103;28;20690;-63
2022/01/17 13:08:40;;;;;;;26.25;3.92;;;;;;;;;;4952763;28;20214;-63
2022/01/17 13:11:09;;;;;;;27.20;3.30;;;;;;;;;;4953673;28;20219;-63
2022/01/17 13:13:35;;;;;;;21.73;3.92;;;;;;;;;;4952397;29;20214;-63
2022/01/17 13:16:01;;;;;;;26.77;4.00;;;;;;;;;;4950293;29;20221;-63
2022/01/17 13:18:27;;;;;;;26.20;4.20;;;;;;;;;;4948309;28;20210;-63
2022/01/17 13:20:53;;;;;;;20.83;3.25;;;;;;;;;;4936773;28;20373;-63
2022/01/17 13:23:26;;;;;;;26.85;3.75;;;;;;;;;;4969038;28;20220;-63
2022/01/17 13:25:52;;;;;;;24.30;4.35;;;;;;;;;;4973905;28;20300;-63
2022/01/17 13:28:17;;;;;;;34.03;15.68;;;;;;;;;;4964832;28;20361;-63
2022/01/17 13:30:42;;;;;;;27.67;7.97;;;;;;;;;;4970988;28;20213;-63
2022/01/17 13:33:08;;;;;;;30.30;7.15;;;;;;;;;;4973146;28;20213;-63
2022/01/17 13:35:35;;;;;;;25.45;4.28;;;;;;;;;;4973426;28;20726;-63
2022/01/17 13:38:09;;;;;;;20.27;4.53;;;;;;;;;;4972202;28;20292;-63
2022/01/17 13:40:35;;;;;;;27.17;4.55;;;;;;;;;;4973208;28;20214;-63
2022/01/17 13:43:00;;;;;;;25.55;4.28;;;;;;;;;;4971121;28;20332;-63
2022/01/17 13:45:31;;;;;;;33.83;4.50;;;;;;;;;;4973268;28;20229;-63
2022/01/17 13:47:57;;;;;;;30.40;4.07;;;;;;;;;;4973451;28;20293;-63
2022/01/17 13:50:22;;;;;;;26.70;4.10;;;;;;;;;;4970776;28;20741;-63
2022/01/17 13:52:47;;;;;;;30.25;4.10;;;;;;;;;;4973446;28;20222;-63
2022/01/17 13:55:25;;;;;;;25.50;4.10;;;;;;;;;;4971532;28;20592;-63
2022/01/17 13:57:55;;;;;;;26.35;4.07;;;;;;;;;;4971147;28;20280;-63
2022/01/17 14:00:21;;;;;;;25.98;4.03;;;;;;;;;;4971899;28;20221;-63
2022/01/17 14:02:46;;;;;;;29.33;4.13;;;;;;;;;;4972337;28;20218;-63
2022/01/17 14:05:12;;;;;;;23.65;3.80;;;;;;;;;;4970694;28;20218;-63
2022/01/17 14:07:37;;;;;;;29.92;3.97;;;;;;;;;;4971907;28;20632;-63
2022/01/17 14:10:15;;;;;;;28.88;4.50;;;;;;;;;;4971499;28;20221;-63
2022/01/17 14:12:40;;;;;;;28.77;5.07;;;;;;;;;;4973540;28;20206;-63
2022/01/17 14:15:05;;;;;;;26.45;4.18;;;;;;;;;;4990121;28;20595;-63
2022/01/17 14:17:31;;;;;;;24.95;4.40;;;;;;;;;;4963000;28;20249;-63
2022/01/17 14:20:09;;;;;;;32.60;4.57;;;;;;;;;;4956891;28;20218;-63
2022/01/17 14:22:45;;;;;;;30.63;4.25;;;;;;;;;;4944917;28;20240;-63
2022/01/17 14:25:17;;;;;;;23.48;4.28;;;;;;;;;;4955193;28;20233;-63
2022/01/17 14:27:54;;;;;;;29.00;3.95;;;;;;;;;;4955988;29;20219;-63
2022/01/17 14:30:25;;;;;;;23.50;3.80;;;;;;;;;;4955793;28;20230;-63
2022/01/17 14:33:06;;;;;;;28.50;3.97;;;;;;;;;;4951078;28;20218;-63
2022/01/17 14:35:31;;;;;;;29.42;3.92;;;;;;;;;;4937685;28;20241;-64
2022/01/17 14:37:58;;;;;;;35.47;4.97;;;;;;;;;;4936891;29;20314;-63
2022/01/17 14:40:28;;;;;;;31.80;3.92;;;;;;;;;;4936793;28;20659;-63
2022/01/17 14:42:53;;;;;;;26.70;4.10;;;;;;;;;;4937879;28;20215;-63
2022/01/17 14:45:18;;;;;;;28.33;4.53;;;;;;;;;;4937849;28;20226;-63
2022/01/17 14:47:44;;;;;;;24.20;4.70;;;;;;;;;;4945485;28;20581;-63
2022/01/17 14:50:11;;;;;;;29.80;5.47;;;;;;;;;;4956766;28;20246;-63